Time;durP1;ratioP1;P1;durP2;ratioP2;P2;SDS_P1;SDS_P2;PMS_P1;PMS_P2;Temp;Humidity;BMP_temperature;BMP_pressure;BME280_temperature;BME280_humidity;BME280_pressure;Samples;Min_cycle;Max_cycle;Signal;HPM_P1;HPM_P2
2023/08/20 00:00:43;;;;;;;8.13;7.00;;;19.00;99.90;;;;;;2064100;28;21027;-82
2023/08/20 00:01:44;;;;;;;9.77;7.33;;;19.00;99.90;;;;;;2066844;28;20468;-81
2023/08/20 00:02:51;;;;;;;8.83;7.13;;;18.90;99.90;;;;;;2072704;28;20477;-80
2023/08/20 00:03:53;;;;;;;8.70;7.37;;;18.90;99.90;;;;;;2068870;28;20570;-82
2023/08/20 00:04:56;;;;;;;8.83;7.20;;;18.90;99.90;;;;;;2066129;28;20518;-82
2023/08/20 00:05:58;;;;;;;11.47;7.20;;;18.90;99.90;;;;;;2064372;28;20471;-82
2023/08/20 00:06:59;;;;;;;10.03;7.00;;;18.90;99.90;;;;;;2064209;28;20501;-82
2023/08/20 00:07:59;;;;;;;9.30;7.50;;;18.90;99.90;;;;;;2072931;28;20506;-82
2023/08/20 00:09:00;;;;;;;11.30;7.33;;;18.90;99.90;;;;;;2067100;28;20472;-82
2023/08/20 00:10:04;;;;;;;11.40;7.67;;;19.00;99.90;;;;;;2065403;28;20234;-82
2023/08/20 00:11:05;;;;;;;7.67;6.87;;;19.00;99.90;;;;;;2064205;28;20289;-82
2023/08/20 00:12:06;;;;;;;8.03;7.10;;;19.00;99.90;;;;;;2069271;28;21021;-82
2023/08/20 00:13:07;;;;;;;10.73;7.10;;;19.00;99.90;;;;;;2065574;28;20428;-82
2023/08/20 00:14:07;;;;;;;8.47;6.60;;;19.10;99.90;;;;;;2056953;28;20183;-81
2023/08/20 00:15:08;;;;;;;8.70;6.53;;;19.10;99.90;;;;;;2064800;28;20261;-82
2023/08/20 00:16:10;;;;;;;8.07;7.07;;;19.10;99.90;;;;;;2060819;28;20577;-82
2023/08/20 00:17:11;;;;;;;10.60;7.10;;;19.10;99.90;;;;;;2068804;28;20808;-82
2023/08/20 00:18:12;;;;;;;12.43;7.20;;;19.00;99.90;;;;;;2077191;28;20431;-82
2023/08/20 00:19:14;;;;;;;9.20;7.63;;;19.00;99.90;;;;;;2077100;28;20844;-80
2023/08/20 00:20:16;;;;;;;10.00;7.90;;;18.90;99.90;;;;;;2073162;28;20477;-81
2023/08/20 00:21:17;;;;;;;9.23;7.10;;;18.90;99.90;;;;;;2064754;28;20455;-81
2023/08/20 00:22:18;;;;;;;8.13;7.00;;;18.90;99.90;;;;;;2069307;28;20517;-82
2023/08/20 00:23:19;;;;;;;10.57;7.17;;;18.90;99.90;;;;;;2072549;28;20510;-82
2023/08/20 00:24:20;;;;;;;9.40;6.50;;;18.90;99.90;;;;;;2071409;28;20419;-81
2023/08/20 00:25:21;;;;;;;8.43;6.70;;;18.90;99.90;;;;;;2067781;28;20554;-81
2023/08/20 00:26:22;;;;;;;12.27;6.70;;;18.90;99.90;;;;;;2075851;28;20470;-82
2023/08/20 00:27:23;;;;;;;8.03;6.60;;;18.80;99.90;;;;;;2068630;28;20221;-81
2023/08/20 00:28:24;;;;;;;8.30;7.30;;;18.80;99.90;;;;;;2053129;28;20477;-81
2023/08/20 00:29:24;;;;;;;9.47;6.90;;;18.80;99.90;;;;;;2060851;28;20314;-81
2023/08/20 00:30:25;;;;;;;8.90;6.83;;;18.80;99.90;;;;;;2063161;28;20222;-81
2023/08/20 00:31:26;;;;;;;8.20;7.40;;;18.80;99.90;;;;;;2060647;28;20453;-83
2023/08/20 00:32:27;;;;;;;8.10;7.30;;;18.90;99.90;;;;;;2069275;28;20245;-81
2023/08/20 00:33:27;;;;;;;8.40;7.33;;;18.90;99.90;;;;;;2064070;28;20225;-82
2023/08/20 00:34:28;;;;;;;11.87;7.33;;;18.90;99.90;;;;;;2067735;28;20225;-82
2023/08/20 00:35:29;;;;;;;11.40;7.17;;;18.90;99.90;;;;;;2069707;28;20236;-80
2023/08/20 00:36:30;;;;;;;9.27;6.60;;;18.90;99.90;;;;;;2063731;28;20657;-80
2023/08/20 00:37:31;;;;;;;7.70;6.67;;;18.90;99.90;;;;;;2068564;28;20230;-82
2023/08/20 00:38:32;;;;;;;11.17;6.83;;;18.90;99.90;;;;;;2076007;28;20276;-83
2023/08/20 00:39:32;;;;;;;10.67;6.87;;;18.90;99.90;;;;;;2071357;28;20471;-81
2023/08/20 00:40:33;;;;;;;7.33;6.63;;;18.90;99.90;;;;;;2059839;28;20226;-81
2023/08/20 00:41:34;;;;;;;7.40;6.47;;;18.90;99.90;;;;;;2068211;28;20244;-82
2023/08/20 00:42:35;;;;;;;9.50;7.87;;;18.90;99.90;;;;;;2076251;28;20231;-82
2023/08/20 00:43:35;;;;;;;9.30;7.57;;;18.90;99.90;;;;;;2060845;28;20282;-82
2023/08/20 00:44:36;;;;;;;9.20;7.63;;;18.90;99.90;;;;;;2059867;28;20706;-82
2023/08/20 00:45:37;;;;;;;8.70;7.40;;;18.80;99.90;;;;;;2060278;28;20225;-81
2023/08/20 00:46:38;;;;;;;8.70;7.33;;;18.80;99.90;;;;;;2064798;28;20232;-82
2023/08/20 00:47:40;;;;;;;8.63;7.57;;;18.80;99.90;;;;;;2071404;28;20800;-81
2023/08/20 00:48:40;;;;;;;8.17;7.37;;;18.80;99.90;;;;;;2062952;28;20478;-82
2023/08/20 00:49:41;;;;;;;10.10;7.77;;;18.70;99.90;;;;;;2070934;28;20490;-81
2023/08/20 00:50:43;;;;;;;8.17;7.30;;;18.70;99.90;;;;;;2071582;28;20225;-82
2023/08/20 00:51:44;;;;;;;8.90;7.40;;;18.80;99.90;;;;;;2068360;28;20470;-82
2023/08/20 00:52:46;;;;;;;9.57;7.70;;;18.70;99.90;;;;;;2062214;28;20547;-81
2023/08/20 00:53:46;;;;;;;8.30;7.50;;;18.70;99.90;;;;;;2056022;28;20863;-80
2023/08/20 00:54:49;;;;;;;11.27;7.63;;;18.70;99.90;;;;;;2061987;28;20470;-81
2023/08/20 00:55:50;;;;;;;11.53;8.57;;;18.70;99.90;;;;;;2063910;28;20792;-82
2023/08/20 00:56:51;;;;;;;9.80;8.20;;;18.70;99.90;;;;;;2054221;28;20470;-81
2023/08/20 00:57:52;;;;;;;8.50;7.70;;;18.70;99.90;;;;;;2055703;28;20227;-82
2023/08/20 00:58:54;;;;;;;9.60;7.20;;;18.80;99.90;;;;;;2053388;28;20929;-83
2023/08/20 00:59:56;;;;;;;9.43;7.27;;;18.70;99.90;;;;;;2053676;28;20322;-82
2023/08/20 01:00:56;;;;;;;9.50;7.33;;;18.70;99.90;;;;;;2059980;28;20579;-82
2023/08/20 01:01:57;;;;;;;9.03;7.60;;;18.70;99.90;;;;;;2067565;28;20510;-83
2023/08/20 01:02:58;;;;;;;7.83;7.10;;;18.70;99.90;;;;;;2064661;28;20767;-83
2023/08/20 01:03:59;;;;;;;10.60;7.23;;;18.80;99.90;;;;;;2070176;28;20229;-81
2023/08/20 01:05:01;;;;;;;9.27;7.30;;;18.80;99.90;;;;;;2070924;28;20275;-81
2023/08/20 01:06:28;;;;;;;12.37;6.97;;;18.80;99.90;;;;;;2064606;28;20226;-82
2023/08/20 01:07:47;;;;;;;7.27;6.57;;;18.70;99.90;;;;;;2071105;28;20474;-82
2023/08/20 01:08:57;;;;;;;9.37;6.53;;;18.80;99.90;;;;;;2080679;28;20457;-81
2023/08/20 01:10:21;;;;;;;10.13;7.33;;;18.60;99.90;;;;;;2070811;28;20554;-83
2023/08/20 01:11:29;;;;;;;8.03;6.53;;;18.60;99.90;;;;;;2071676;28;20881;-82
2023/08/20 01:12:31;;;;;;;8.20;7.10;;;18.60;99.90;;;;;;2079772;28;20475;-83
2023/08/20 01:13:32;;;;;;;8.27;7.30;;;18.60;99.90;;;;;;2076306;28;20463;-82
2023/08/20 01:14:32;;;;;;;8.70;7.47;;;18.50;99.90;;;;;;2074059;28;20545;-83
2023/08/20 01:15:33;;;;;;;8.30;6.80;;;18.50;99.90;;;;;;2073791;28;20667;-83
2023/08/20 01:16:34;;;;;;;8.40;7.23;;;18.50;99.90;;;;;;2065500;28;20241;-82
2023/08/20 01:17:35;;;;;;;8.33;7.40;;;18.50;99.90;;;;;;2065155;28;20297;-83
2023/08/20 01:18:35;;;;;;;9.90;7.50;;;18.50;99.90;;;;;;2065033;28;20233;-82
2023/08/20 01:19:36;;;;;;;7.53;6.83;;;18.50;99.90;;;;;;2065046;28;20673;-83
2023/08/20 01:20:46;;;;;;;8.67;7.03;;;18.50;99.90;;;;;;2068657;28;20230;-82
2023/08/20 01:22:19;;;;;;;9.30;7.37;;;18.50;99.90;;;;;;2077871;28;20465;-83
2023/08/20 01:24:02;;;;;;;8.50;7.23;;;18.40;99.90;;;;;;2068739;28;20582;-82
2023/08/20 01:25:29;;;;;;;8.03;7.20;;;18.40;99.90;;;;;;2066928;28;20554;-81
2023/08/20 01:26:43;;;;;;;9.10;8.07;;;18.40;99.90;;;;;;2064632;28;20570;-83
2023/08/20 01:28:01;;;;;;;9.03;7.37;;;18.40;99.90;;;;;;2068336;28;20479;-82
2023/08/20 01:29:05;;;;;;;9.23;8.33;;;18.30;99.90;;;;;;2072158;28;20541;-82
2023/08/20 01:30:06;;;;;;;9.20;8.20;;;18.20;99.90;;;;;;2069830;28;20430;-82
2023/08/20 01:31:08;;;;;;;9.90;8.83;;;18.20;99.90;;;;;;2065495;28;20474;-83
2023/08/20 01:32:10;;;;;;;10.40;8.43;;;18.10;99.90;;;;;;2063944;28;20432;-82
2023/08/20 01:33:14;;;;;;;9.10;8.20;;;18.20;99.90;;;;;;2072880;28;20485;-82
2023/08/20 01:34:15;;;;;;;9.43;8.47;;;18.20;99.90;;;;;;2065025;28;20874;-82
2023/08/20 01:35:17;;;;;;;8.50;7.60;;;18.20;99.90;;;;;;2068745;28;20420;-82
2023/08/20 01:36:18;;;;;;;8.90;7.87;;;18.00;99.90;;;;;;2073323;28;20198;-82
2023/08/20 01:37:18;;;;;;;10.70;8.07;;;18.00;99.90;;;;;;2072234;28;20446;-81
2023/08/20 01:38:20;;;;;;;9.00;8.10;;;18.00;99.90;;;;;;2065151;28;20186;-82
2023/08/20 01:39:20;;;;;;;10.70;8.93;;;18.10;99.90;;;;;;2070938;28;20218;-83
2023/08/20 01:40:21;;;;;;;8.90;7.93;;;18.10;99.90;;;;;;2073310;28;20478;-83
2023/08/20 01:41:22;;;;;;;9.87;8.07;;;18.00;99.90;;;;;;2065936;28;20238;-82
2023/08/20 01:42:22;;;;;;;12.97;8.67;;;18.00;99.90;;;;;;2073024;28;20241;-82
2023/08/20 01:43:23;;;;;;;9.20;8.20;;;18.10;99.90;;;;;;2073518;28;20333;-83
2023/08/20 01:44:24;;;;;;;12.10;8.43;;;18.10;99.90;;;;;;2072230;28;20268;-82
2023/08/20 01:45:26;;;;;;;11.77;8.47;;;18.10;99.90;;;;;;2073186;28;20740;-83
2023/08/20 01:46:26;;;;;;;9.77;8.70;;;18.20;99.90;;;;;;2073695;28;20244;-83
2023/08/20 01:47:27;;;;;;;10.67;7.87;;;18.20;99.90;;;;;;2074128;28;20463;-84
2023/08/20 01:48:28;;;;;;;11.20;9.20;;;18.20;99.90;;;;;;2079717;28;20240;-83
2023/08/20 01:49:28;;;;;;;11.00;7.87;;;18.20;99.90;;;;;;2073587;28;20260;-83
2023/08/20 01:50:30;;;;;;;9.47;8.30;;;18.20;99.90;;;;;;2069377;28;20233;-82
2023/08/20 01:51:30;;;;;;;12.80;8.70;;;18.30;99.90;;;;;;2065094;28;20253;-84
2023/08/20 01:52:31;;;;;;;9.03;8.03;;;18.20;99.90;;;;;;2058018;28;20476;-83
2023/08/20 01:53:32;;;;;;;9.93;8.73;;;18.20;99.90;;;;;;2067446;28;20261;-81
2023/08/20 01:54:32;;;;;;;9.67;8.27;;;18.20;99.90;;;;;;2065991;28;20230;-84
2023/08/20 01:55:33;;;;;;;10.67;8.13;;;18.20;99.90;;;;;;2057566;28;20250;-84
2023/08/20 01:56:34;;;;;;;9.10;7.73;;;18.30;99.90;;;;;;2063881;28;20306;-83
2023/08/20 01:57:35;;;;;;;10.53;8.50;;;18.30;99.90;;;;;;2072756;28;20288;-84
2023/08/20 01:58:36;;;;;;;10.87;8.27;;;18.20;99.90;;;;;;2064367;28;20226;-84
2023/08/20 01:59:37;;;;;;;11.13;8.10;;;18.20;99.90;;;;;;2062536;28;20274;-82
2023/08/20 02:00:37;;;;;;;9.70;7.97;;;18.20;99.90;;;;;;2079627;28;20477;-82
2023/08/20 02:01:38;;;;;;;9.03;7.67;;;18.20;99.90;;;;;;2065098;28;20239;-83
2023/08/20 02:02:39;;;;;;;12.40;7.90;;;18.20;99.90;;;;;;2049710;28;20326;-83
2023/08/20 02:03:40;;;;;;;11.63;7.93;;;18.20;99.90;;;;;;2057869;28;20231;-83
2023/08/20 02:04:40;;;;;;;9.50;7.97;;;18.20;99.90;;;;;;2066139;28;20240;-83
2023/08/20 02:05:41;;;;;;;10.03;8.33;;;18.20;99.90;;;;;;2073439;28;20225;-83
2023/08/20 02:06:42;;;;;;;9.40;8.20;;;18.10;99.90;;;;;;2073113;28;20240;-84
2023/08/20 02:07:43;;;;;;;9.03;8.13;;;18.20;99.90;;;;;;2070490;28;20221;-83
2023/08/20 02:08:43;;;;;;;10.20;8.93;;;18.20;99.90;;;;;;2071728;28;20237;-84
2023/08/20 02:09:44;;;;;;;9.17;8.27;;;18.20;99.90;;;;;;2077653;28;20312;-83
2023/08/20 02:10:45;;;;;;;9.67;8.57;;;18.20;99.90;;;;;;2073672;28;20303;-83
2023/08/20 02:11:45;;;;;;;11.70;8.10;;;18.20;99.90;;;;;;2073165;28;20705;-84
2023/08/20 02:12:46;;;;;;;10.23;8.33;;;18.20;99.90;;;;;;2069098;28;20229;-82
2023/08/20 02:13:47;;;;;;;11.93;9.00;;;18.20;99.90;;;;;;2068746;28;20318;-83
2023/08/20 02:14:47;;;;;;;10.23;8.53;;;18.20;99.90;;;;;;2073289;28;20233;-83
2023/08/20 02:16:01;;;;;;;11.47;8.33;;;18.20;99.90;;;;;;2069152;28;20234;-83
2023/08/20 02:17:03;;;;;;;9.27;8.10;;;18.20;99.90;;;;;;2066011;28;20253;-83
2023/08/20 02:18:04;;;;;;;9.17;8.17;;;18.20;99.90;;;;;;2064460;28;20866;-83
2023/08/20 02:19:06;;;;;;;10.47;8.27;;;18.10;99.90;;;;;;2068966;28;20462;-82
2023/08/20 02:20:09;;;;;;;9.73;8.43;;;18.00;99.90;;;;;;2072242;28;20427;-84
2023/08/20 02:21:10;;;;;;;9.87;7.90;;;18.00;99.90;;;;;;2070340;28;21117;-83
2023/08/20 02:22:11;;;;;;;9.80;8.80;;;18.00;99.90;;;;;;2076448;28;20467;-83
2023/08/20 02:23:12;;;;;;;12.43;9.10;;;18.00;99.90;;;;;;2065129;28;20216;-83
2023/08/20 02:24:12;;;;;;;10.93;8.30;;;18.00;99.90;;;;;;2063992;28;20178;-82
2023/08/20 02:25:13;;;;;;;11.47;8.33;;;18.10;99.90;;;;;;2081159;28;20185;-82
2023/08/20 02:26:15;;;;;;;8.57;7.70;;;18.00;99.90;;;;;;2072743;28;20841;-82
2023/08/20 02:27:15;;;;;;;10.30;8.27;;;18.00;99.90;;;;;;2060358;28;20206;-83
2023/08/20 02:28:16;;;;;;;10.47;8.50;;;18.10;99.90;;;;;;2069061;28;21000;-83
2023/08/20 02:29:17;;;;;;;9.27;8.43;;;18.10;99.90;;;;;;2073684;28;20662;-82
2023/08/20 02:30:17;;;;;;;9.53;8.40;;;18.10;99.90;;;;;;2056826;28;20179;-82
2023/08/20 02:31:21;;;;;;;10.47;7.93;;;18.00;99.90;;;;;;2049867;28;20187;-82
2023/08/20 02:32:22;;;;;;;11.57;9.30;;;18.00;99.90;;;;;;2052490;28;20231;-83
2023/08/20 02:33:23;;;;;;;10.50;9.20;;;18.00;99.90;;;;;;2064631;28;20530;-83
2023/08/20 02:34:23;;;;;;;9.50;8.43;;;18.00;99.90;;;;;;2064397;28;20356;-82
2023/08/20 02:35:24;;;;;;;9.70;8.80;;;18.00;99.90;;;;;;2064433;28;20237;-82
2023/08/20 02:36:25;;;;;;;9.17;8.23;;;18.00;99.90;;;;;;2072240;28;20237;-82
2023/08/20 02:37:26;;;;;;;9.20;8.30;;;18.00;99.90;;;;;;2072346;28;20225;-83
2023/08/20 02:38:26;;;;;;;12.37;8.80;;;17.90;99.90;;;;;;2059964;28;20817;-82
2023/08/20 02:39:27;;;;;;;9.97;8.83;;;17.90;99.90;;;;;;2068043;28;20245;-82
2023/08/20 02:40:28;;;;;;;10.27;9.17;;;17.90;99.90;;;;;;2072207;28;20233;-83
2023/08/20 02:41:28;;;;;;;12.67;9.23;;;17.90;99.90;;;;;;2068518;28;20289;-82
2023/08/20 02:42:29;;;;;;;10.20;8.93;;;18.00;99.90;;;;;;2068353;28;20237;-83
2023/08/20 02:43:30;;;;;;;12.53;8.80;;;18.00;99.90;;;;;;2072628;28;20744;-83
2023/08/20 02:44:31;;;;;;;11.40;10.10;;;18.10;99.90;;;;;;2063950;28;20276;-82
2023/08/20 02:45:32;;;;;;;12.00;10.00;;;18.10;99.90;;;;;;2065126;28;20549;-83
2023/08/20 02:46:32;;;;;;;13.00;11.60;;;18.20;99.90;;;;;;2072750;28;20276;-83
2023/08/20 02:47:33;;;;;;;11.90;10.43;;;18.20;99.90;;;;;;2068217;28;20587;-83
2023/08/20 02:48:34;;;;;;;11.60;10.40;;;18.20;99.90;;;;;;2064552;28;20234;-83
2023/08/20 02:49:34;;;;;;;14.33;11.70;;;18.20;99.90;;;;;;2064409;28;20900;-83
2023/08/20 02:50:35;;;;;;;12.80;11.10;;;18.20;99.90;;;;;;2068146;28;20325;-83
2023/08/20 02:51:36;;;;;;;11.77;10.23;;;18.30;99.90;;;;;;2077267;28;20233;-83
2023/08/20 02:52:37;;;;;;;14.10;10.90;;;18.30;99.90;;;;;;2070793;28;20466;-83
2023/08/20 02:53:38;;;;;;;11.83;10.57;;;18.30;99.90;;;;;;2061301;28;20273;-83
2023/08/20 02:54:38;;;;;;;12.33;10.30;;;18.40;99.90;;;;;;2063583;28;21101;-83
2023/08/20 02:55:39;;;;;;;14.33;10.20;;;18.40;99.90;;;;;;2069115;28;20237;-83
2023/08/20 02:56:40;;;;;;;11.40;10.20;;;18.50;99.90;;;;;;2060405;28;20687;-83
2023/08/20 02:57:40;;;;;;;13.20;9.50;;;18.50;99.90;;;;;;2056198;28;20233;-83
2023/08/20 02:58:41;;;;;;;10.57;9.10;;;18.50;99.90;;;;;;2063236;28;20225;-81
2023/08/20 02:59:42;;;;;;;14.77;10.60;;;18.50;99.90;;;;;;2061670;28;20234;-82
2023/08/20 03:00:44;;;;;;;11.43;10.00;;;18.50;99.90;;;;;;2053454;28;20231;-82
2023/08/20 03:01:45;;;;;;;10.50;9.50;;;18.60;99.90;;;;;;2052801;28;20254;-81
2023/08/20 03:02:46;;;;;;;11.37;9.20;;;18.60;99.90;;;;;;2056306;28;20460;-82
2023/08/20 03:03:47;;;;;;;11.93;9.40;;;18.50;99.90;;;;;;2056474;28;20990;-82
2023/08/20 03:04:47;;;;;;;9.20;8.10;;;18.50;99.90;;;;;;2071061;28;20244;-81
2023/08/20 03:05:48;;;;;;;12.80;8.93;;;18.50;99.90;;;;;;2080215;28;20799;-81
2023/08/20 03:06:49;;;;;;;10.27;8.53;;;18.50;99.90;;;;;;2063534;28;20326;-82
2023/08/20 03:07:50;;;;;;;9.90;8.90;;;18.40;99.90;;;;;;2060041;28;20373;-81
2023/08/20 03:08:50;;;;;;;9.40;8.37;;;18.40;99.90;;;;;;2071987;28;20706;-83
2023/08/20 03:09:51;;;;;;;12.77;8.87;;;18.40;99.90;;;;;;2063144;28;20230;-81
2023/08/20 03:10:52;;;;;;;10.93;8.47;;;18.40;99.90;;;;;;2064435;28;20234;-82
2023/08/20 03:11:52;;;;;;;10.33;8.10;;;18.30;99.90;;;;;;2072301;28;20615;-82
2023/08/20 03:12:53;;;;;;;10.43;8.67;;;18.30;99.90;;;;;;2063880;28;20406;-82
2023/08/20 03:13:54;;;;;;;9.57;8.57;;;18.30;99.90;;;;;;2064293;28;20230;-83
2023/08/20 03:14:55;;;;;;;10.67;9.00;;;18.30;99.90;;;;;;2063199;28;20261;-82
2023/08/20 03:15:56;;;;;;;11.17;9.13;;;18.30;99.90;;;;;;2063710;28;20230;-83
2023/08/20 03:16:57;;;;;;;9.17;8.10;;;18.30;99.90;;;;;;2063585;28;20496;-81
2023/08/20 03:17:57;;;;;;;10.70;9.07;;;18.30;99.90;;;;;;2071480;28;20225;-81
2023/08/20 03:18:58;;;;;;;9.47;8.57;;;18.20;99.90;;;;;;2068165;28;20681;-83
2023/08/20 03:20:00;;;;;;;10.33;8.77;;;18.30;99.90;;;;;;2067887;28;20233;-81
2023/08/20 03:21:01;;;;;;;13.47;9.37;;;18.30;99.90;;;;;;2063094;28;20219;-82
2023/08/20 03:22:02;;;;;;;10.00;8.90;;;18.30;99.90;;;;;;2064249;28;20466;-81
2023/08/20 03:23:02;;;;;;;11.43;9.07;;;18.30;99.90;;;;;;2070965;28;20213;-83
2023/08/20 03:24:04;;;;;;;10.13;8.93;;;18.20;99.90;;;;;;2071978;28;20185;-83
2023/08/20 03:25:06;;;;;;;12.77;8.20;;;18.20;99.90;;;;;;2062617;28;20591;-83
2023/08/20 03:26:06;;;;;;;10.60;9.20;;;18.30;99.90;;;;;;2054192;28;20977;-82
2023/08/20 03:27:07;;;;;;;10.83;8.97;;;18.30;99.90;;;;;;2060476;28;20416;-83
2023/08/20 03:28:08;;;;;;;8.70;7.80;;;18.30;99.90;;;;;;2074415;28;20189;-81
2023/08/20 03:29:09;;;;;;;9.17;8.20;;;18.30;99.90;;;;;;2075579;28;20498;-83
2023/08/20 03:30:10;;;;;;;9.77;8.77;;;18.20;99.90;;;;;;2063958;28;20551;-82
2023/08/20 03:31:11;;;;;;;10.40;8.80;;;18.20;99.90;;;;;;2063929;28;20175;-83
2023/08/20 03:32:12;;;;;;;10.10;9.10;;;18.10;99.90;;;;;;2063932;28;20895;-82
2023/08/20 03:33:13;;;;;;;10.20;9.20;;;18.10;99.90;;;;;;2055445;28;20694;-82
2023/08/20 03:34:13;;;;;;;11.60;9.10;;;18.20;99.90;;;;;;2055967;28;20183;-83
2023/08/20 03:35:14;;;;;;;11.00;9.30;;;18.10;99.90;;;;;;2051745;28;20199;-82
2023/08/20 03:36:15;;;;;;;12.00;9.97;;;18.20;99.90;;;;;;2064676;28;20553;-83
2023/08/20 03:37:16;;;;;;;11.07;9.87;;;18.20;99.90;;;;;;2071839;28;20701;-83
2023/08/20 03:38:16;;;;;;;11.20;10.03;;;18.20;99.90;;;;;;2071198;28;20209;-81
2023/08/20 03:39:17;;;;;;;11.43;10.23;;;18.20;99.90;;;;;;2063595;28;20174;-83
2023/08/20 03:40:18;;;;;;;13.50;9.67;;;18.10;99.90;;;;;;2059917;28;20203;-82
2023/08/20 03:41:19;;;;;;;11.67;9.50;;;18.10;99.90;;;;;;2060127;28;20429;-83
2023/08/20 03:42:20;;;;;;;11.67;9.20;;;18.10;99.90;;;;;;2072101;28;20205;-83
2023/08/20 03:43:20;;;;;;;11.50;9.53;;;18.10;99.90;;;;;;2071374;28;20300;-82
2023/08/20 03:44:21;;;;;;;10.90;9.80;;;18.10;99.90;;;;;;2055973;28;20251;-84
2023/08/20 03:45:22;;;;;;;12.13;9.07;;;18.10;99.90;;;;;;2063878;28;20300;-82
2023/08/20 03:46:22;;;;;;;11.30;9.70;;;18.10;99.90;;;;;;2057135;28;20313;-83
2023/08/20 03:47:23;;;;;;;12.43;10.40;;;18.10;99.90;;;;;;2056870;28;20328;-81
2023/08/20 03:48:24;;;;;;;12.50;10.33;;;18.10;99.90;;;;;;2055103;28;20235;-82
2023/08/20 03:49:25;;;;;;;11.73;9.97;;;18.10;99.90;;;;;;2060649;28;20234;-83
2023/08/20 03:50:25;;;;;;;10.77;9.47;;;18.10;99.90;;;;;;2067635;28;20239;-83
2023/08/20 03:51:26;;;;;;;11.90;10.63;;;18.20;99.90;;;;;;2063431;28;20234;-83
2023/08/20 03:52:27;;;;;;;12.63;10.47;;;18.10;99.90;;;;;;2068194;28;20793;-82
2023/08/20 03:53:27;;;;;;;12.40;10.37;;;18.20;99.90;;;;;;2068038;28;20234;-82
2023/08/20 03:54:29;;;;;;;12.13;9.77;;;18.20;99.90;;;;;;2067487;28;20737;-83
2023/08/20 03:55:30;;;;;;;12.27;10.83;;;18.10;99.90;;;;;;2067908;28;20237;-84
2023/08/20 03:56:30;;;;;;;13.87;10.20;;;18.10;99.90;;;;;;2063365;28;20944;-83
2023/08/20 03:57:31;;;;;;;12.77;10.83;;;18.10;99.90;;;;;;2069505;28;20265;-82
2023/08/20 03:58:32;;;;;;;10.27;9.27;;;18.10;99.90;;;;;;2071070;28;20233;-82
2023/08/20 03:59:33;;;;;;;11.93;10.03;;;18.10;99.90;;;;;;2061377;28;20241;-83
2023/08/20 04:00:36;;;;;;;11.87;9.20;;;18.10;99.90;;;;;;2065005;28;20234;-83
2023/08/20 04:01:37;;;;;;;12.60;9.47;;;18.10;99.90;;;;;;2071203;28;20475;-83
2023/08/20 04:02:38;;;;;;;10.73;9.33;;;18.20;99.90;;;;;;2071723;28;20466;-84
2023/08/20 04:03:39;;;;;;;12.00;9.87;;;18.20;99.90;;;;;;2060498;28;20483;-83
2023/08/20 04:04:39;;;;;;;11.83;10.03;;;18.10;99.90;;;;;;2063322;28;20510;-83
2023/08/20 04:05:40;;;;;;;13.37;10.07;;;18.00;99.90;;;;;;2062690;28;20272;-83
2023/08/20 04:06:41;;;;;;;13.87;10.43;;;18.00;99.90;;;;;;2064210;28;20234;-82
2023/08/20 04:07:41;;;;;;;11.93;9.70;;;18.00;99.90;;;;;;2055968;28;20271;-83
2023/08/20 04:08:42;;;;;;;10.83;9.70;;;18.00;99.90;;;;;;2064203;28;20237;-83
2023/08/20 04:09:43;;;;;;;13.43;11.17;;;18.00;99.90;;;;;;2063999;28;20799;-83
2023/08/20 04:10:45;;;;;;;12.23;10.97;;;18.00;99.90;;;;;;2060410;28;20292;-83
2023/08/20 04:11:46;;;;;;;13.70;10.70;;;18.00;99.90;;;;;;2063926;28;20226;-84
2023/08/20 04:12:46;;;;;;;14.23;10.67;;;18.00;99.90;;;;;;2071922;28;20566;-82
2023/08/20 04:13:47;;;;;;;11.90;10.70;;;18.00;99.90;;;;;;2072043;28;20229;-83
2023/08/20 04:14:48;;;;;;;12.57;10.60;;;18.00;99.90;;;;;;2079545;28;20679;-83
2023/08/20 04:15:49;;;;;;;11.43;9.97;;;18.00;99.90;;;;;;2069246;28;20698;-82
2023/08/20 04:16:50;;;;;;;12.40;9.40;;;18.00;99.90;;;;;;2060468;28;20465;-83
2023/08/20 04:17:50;;;;;;;14.20;9.77;;;18.00;99.90;;;;;;2064064;28;20765;-82
2023/08/20 04:18:51;;;;;;;10.37;9.20;;;18.00;99.90;;;;;;2064208;28;20229;-82
2023/08/20 04:19:52;;;;;;;10.63;9.57;;;18.00;99.90;;;;;;2068424;28;20359;-83
2023/08/20 04:20:53;;;;;;;10.57;9.47;;;17.90;99.90;;;;;;2071900;28;20271;-83
2023/08/20 04:21:54;;;;;;;11.30;10.07;;;17.80;99.90;;;;;;2071780;28;20276;-82
2023/08/20 04:22:55;;;;;;;15.87;9.80;;;17.80;99.90;;;;;;2063453;28;20471;-83
2023/08/20 04:23:55;;;;;;;10.80;9.57;;;17.70;99.90;;;;;;2060514;28;20282;-83
2023/08/20 04:24:56;;;;;;;11.77;10.57;;;17.70;99.90;;;;;;2080446;28;20292;-83
2023/08/20 04:25:57;;;;;;;10.33;9.33;;;17.60;99.90;;;;;;2080336;28;20221;-83
2023/08/20 04:26:57;;;;;;;13.37;10.13;;;17.60;99.90;;;;;;2071879;28;20248;-82
2023/08/20 04:27:58;;;;;;;12.27;10.90;;;17.50;99.90;;;;;;2072397;28;20233;-84
2023/08/20 04:29:00;;;;;;;12.80;10.67;;;17.50;99.90;;;;;;2063661;28;20240;-83
2023/08/20 04:30:01;;;;;;;13.27;10.30;;;17.50;99.90;;;;;;2055240;28;20285;-83
2023/08/20 04:31:02;;;;;;;14.63;10.47;;;17.60;99.90;;;;;;2063408;28;20866;-83
2023/08/20 04:32:03;;;;;;;11.57;9.97;;;17.60;99.90;;;;;;2054836;28;20236;-83
2023/08/20 04:33:04;;;;;;;11.87;10.70;;;17.70;99.90;;;;;;2051722;28;20958;-82
2023/08/20 04:34:05;;;;;;;12.00;10.53;;;17.70;99.90;;;;;;2051439;28;20198;-82
2023/08/20 04:35:06;;;;;;;11.90;10.30;;;17.80;99.90;;;;;;2059331;28;20451;-83
2023/08/20 04:36:07;;;;;;;11.63;9.33;;;17.80;99.90;;;;;;2065695;28;20232;-83
2023/08/20 04:37:08;;;;;;;14.40;10.80;;;17.80;99.90;;;;;;2063778;28;20861;-83
2023/08/20 04:38:08;;;;;;;11.53;10.33;;;17.80;99.90;;;;;;2071382;28;20201;-83
2023/08/20 04:39:10;;;;;;;11.53;10.33;;;17.80;99.90;;;;;;2070873;28;20221;-82
2023/08/20 04:40:12;;;;;;;14.00;10.23;;;17.90;99.90;;;;;;2063123;28;20248;-83
2023/08/20 04:41:13;;;;;;;11.33;9.80;;;17.90;99.90;;;;;;2063523;28;20435;-82
2023/08/20 04:42:13;;;;;;;12.13;9.73;;;17.90;99.90;;;;;;2063969;28;20431;-82
2023/08/20 04:43:14;;;;;;;16.67;9.87;;;17.90;99.90;;;;;;2063099;28;20202;-83
2023/08/20 04:44:15;;;;;;;12.23;9.90;;;17.90;99.90;;;;;;2063900;28;20562;-83
2023/08/20 04:45:19;;;;;;;14.90;10.67;;;18.00;99.90;;;;;;2055242;28;20436;-83
2023/08/20 04:46:20;;;;;;;10.53;9.43;;;18.00;99.90;;;;;;2064380;28;20690;-83
2023/08/20 04:47:21;;;;;;;11.50;10.30;;;18.00;99.90;;;;;;2079301;28;20449;-82
2023/08/20 04:48:22;;;;;;;13.27;10.00;;;18.10;99.90;;;;;;2075998;28;20470;-83
2023/08/20 04:49:22;;;;;;;12.53;10.57;;;18.20;99.90;;;;;;2067542;28;20248;-83
2023/08/20 04:50:23;;;;;;;11.90;9.80;;;18.20;99.90;;;;;;2064040;28;20235;-82
2023/08/20 04:51:24;;;;;;;10.63;9.53;;;18.20;99.90;;;;;;2061741;28;20738;-83
2023/08/20 04:52:25;;;;;;;11.57;9.77;;;18.30;99.90;;;;;;2063762;28;20463;-83
2023/08/20 04:53:26;;;;;;;11.03;9.17;;;18.30;99.90;;;;;;2063686;28;20233;-83
2023/08/20 04:54:26;;;;;;;10.57;8.90;;;18.40;99.90;;;;;;2063296;28;20230;-84
2023/08/20 04:55:30;;;;;;;10.50;9.30;;;18.40;99.90;;;;;;2072653;28;20687;-83
2023/08/20 04:56:31;;;;;;;12.10;9.80;;;18.40;99.90;;;;;;2063947;28;20237;-83
2023/08/20 04:57:31;;;;;;;11.80;10.10;;;18.50;99.90;;;;;;2063926;28;20467;-83
2023/08/20 04:58:32;;;;;;;11.47;9.70;;;18.50;99.90;;;;;;2071008;28;20615;-83
2023/08/20 04:59:33;;;;;;;10.80;9.70;;;18.60;99.90;;;;;;2063128;28;21001;-84
2023/08/20 05:00:34;;;;;;;10.87;9.83;;;18.60;99.90;;;;;;2062554;28;20241;-83
2023/08/20 05:01:35;;;;;;;11.57;10.23;;;18.70;99.90;;;;;;2063474;28;20475;-83
2023/08/20 05:02:35;;;;;;;12.13;9.73;;;18.80;99.90;;;;;;2061180;28;20672;-83
2023/08/20 05:03:36;;;;;;;11.13;10.03;;;18.80;99.90;;;;;;2052107;28;20238;-83
2023/08/20 05:04:37;;;;;;;11.07;9.83;;;18.90;99.90;;;;;;2067970;28;20233;-84
2023/08/20 05:05:37;;;;;;;12.97;10.50;;;19.00;99.90;;;;;;2067357;28;20240;-82
2023/08/20 05:06:38;;;;;;;14.10;11.00;;;19.10;99.90;;;;;;2078575;28;20616;-83
2023/08/20 05:07:39;;;;;;;12.97;10.17;;;19.10;99.90;;;;;;2075342;28;20251;-83
2023/08/20 05:08:40;;;;;;;12.10;10.77;;;19.20;99.90;;;;;;2063372;28;20233;-84
2023/08/20 05:09:40;;;;;;;13.40;11.00;;;19.30;99.90;;;;;;2055712;28;20258;-83
2023/08/20 05:10:41;;;;;;;13.90;10.20;;;19.40;99.90;;;;;;2061343;28;20229;-82
2023/08/20 05:11:42;;;;;;;12.93;10.17;;;19.50;99.90;;;;;;2070976;28;20233;-83
2023/08/20 05:12:43;;;;;;;11.10;9.80;;;19.50;99.90;;;;;;2068342;28;20239;-82
2023/08/20 05:13:47;;;;;;;13.43;9.67;;;19.60;99.90;;;;;;2075807;28;20485;-84
2023/08/20 05:14:47;;;;;;;12.57;10.10;;;19.60;99.90;;;;;;2069307;28;20229;-82
2023/08/20 05:15:48;;;;;;;11.60;9.03;;;19.70;99.90;;;;;;2055615;28;20900;-82
2023/08/20 05:16:49;;;;;;;9.57;8.47;;;19.80;99.90;;;;;;2062648;28;20256;-83
2023/08/20 05:17:49;;;;;;;8.63;7.80;;;19.80;99.90;;;;;;2067309;28;20322;-82